createdAt,value
2022-08-25T00:00:24.390Z,11.57
2022-08-25T00:05:29.323Z,7.43
2022-08-25T00:10:37.174Z,9.75
2022-08-25T00:15:39.134Z,10.18
2022-08-25T00:20:41.059Z,15.18
2022-08-25T00:25:50.966Z,11.32
2022-08-25T00:30:53.107Z,7.18
2022-08-25T00:35:56.421Z,11.75
2022-08-25T00:41:07.442Z,6.07
2022-08-25T00:46:10.696Z,9.02
2022-08-25T00:51:15.782Z,8.30
2022-08-25T00:56:18.864Z,11.77
2022-08-25T01:01:23.776Z,10.48
2022-08-25T01:06:27.389Z,6.60
2022-08-25T01:11:29.412Z,9.98
2022-08-25T01:16:31.947Z,8.77
2022-08-25T01:21:41.707Z,6.93
2022-08-25T01:26:43.521Z,8.13
2022-08-25T01:31:46.695Z,9.43
2022-08-25T01:36:48.668Z,9.88
2022-08-25T01:52:33.346Z,11.77
2022-08-25T01:57:35.199Z,11.52
2022-08-25T02:02:37.375Z,11.82
2022-08-25T02:07:44.681Z,8.50
2022-08-25T02:12:46.511Z,10.27
2022-08-25T02:17:49.170Z,10.80
2022-08-25T02:22:56.548Z,13.77
2022-08-25T02:27:59.084Z,11.73
2022-08-25T02:33:01.365Z,13.73
2022-08-25T02:38:03.906Z,11.07
2022-08-25T02:43:06.200Z,14.95
2022-08-25T02:48:08.382Z,13.00
2022-08-25T02:53:10.194Z,9.25
2022-08-25T02:58:12.098Z,9.98
2022-08-25T03:03:23.211Z,13.40
2022-08-25T03:08:25.984Z,10.07
2022-08-25T03:13:27.942Z,10.15
2022-08-25T03:18:30.541Z,10.60
2022-08-25T03:23:33.063Z,12.43
2022-08-25T03:28:35.745Z,12.05
2022-08-25T03:33:38.517Z,14.43
2022-08-25T03:38:41.148Z,9.43
2022-08-25T03:43:43.961Z,15.10
2022-08-25T03:48:46.358Z,10.50
2022-08-25T03:53:48.375Z,13.05
2022-08-25T03:58:50.638Z,11.95
2022-08-25T04:03:52.895Z,11.57
2022-08-25T04:08:55.153Z,10.93
2022-08-25T04:14:06.470Z,11.55
2022-08-25T04:24:21.922Z,11.77
2022-08-25T04:29:26.195Z,9.82
2022-08-25T04:34:31.113Z,13.85
2022-08-25T04:39:43.016Z,12.77
2022-08-25T04:44:58.250Z,15.38
2022-08-25T04:51:22.127Z,13.95
2022-08-25T04:56:26.218Z,10.80
2022-08-25T05:08:05.152Z,12.55
2022-08-25T05:13:07.831Z,11.48
2022-08-25T05:18:10.563Z,11.32
2022-08-25T05:23:13.073Z,14.80
2022-08-25T05:28:17.835Z,10.93
2022-08-25T05:33:20.436Z,13.23
2022-08-25T05:38:26.710Z,15.55
2022-08-25T05:43:29.072Z,13.00
2022-08-25T05:48:31.329Z,15.18
2022-08-25T05:53:34.208Z,14.35
2022-08-25T05:58:37.094Z,19.95
2022-08-25T06:03:38.881Z,19.00
2022-08-25T06:08:41.153Z,14.75
2022-08-25T06:13:43.355Z,16.15
2022-08-25T06:18:45.792Z,15.23
2022-08-25T06:23:49.314Z,14.07
2022-08-25T06:28:52.380Z,27.83
2022-08-25T06:33:54.595Z,12.05
2022-08-25T06:38:56.705Z,13.35
2022-08-25T06:44:04.946Z,15.77
2022-08-25T06:49:08.159Z,14.73
2022-08-25T06:54:10.675Z,11.77
2022-08-25T06:59:12.812Z,12.82
2022-08-25T07:04:14.741Z,13.07
2022-08-25T07:09:16.973Z,9.82
2022-08-25T07:14:19.568Z,9.75
2022-08-25T07:19:21.520Z,8.40
2022-08-25T07:24:23.799Z,8.70
2022-08-25T07:29:32.754Z,10.38
2022-08-25T07:34:53.753Z,8.52
2022-08-25T07:39:55.606Z,9.48
2022-08-25T07:44:58.824Z,9.48
2022-08-25T07:50:00.554Z,7.35
2022-08-25T07:55:03.396Z,10.85
2022-08-25T08:00:06.821Z,8.15
2022-08-25T08:05:10.014Z,7.90
2022-08-25T08:10:54.157Z,7.82
2022-08-25T08:15:37.884Z,8.23
2022-08-25T08:20:43.096Z,7.20
2022-08-25T08:25:45.327Z,8.68
2022-08-25T08:30:53.496Z,8.73
2022-08-25T08:35:59.350Z,7.82
2022-08-25T08:41:26.136Z,8.23
2022-08-25T08:46:46.065Z,8.52
2022-08-25T08:51:56.144Z,10.23
2022-08-25T08:57:08.858Z,8.60
2022-08-25T09:02:39.468Z,5.72
2022-08-25T09:07:56.479Z,6.70
2022-08-25T09:13:18.475Z,8.02
2022-08-25T09:18:50.837Z,6.07
2022-08-25T09:24:25.415Z,5.55
2022-08-25T09:29:36.364Z,5.45
2022-08-25T09:34:39.763Z,6.25
2022-08-25T09:39:42.300Z,6.05
2022-08-25T09:44:46.258Z,6.50
2022-08-25T09:49:51.828Z,4.50
2022-08-25T09:54:55.583Z,5.15
2022-08-25T09:59:58.011Z,5.10
2022-08-25T10:05:18.732Z,4.53
2022-08-25T10:10:33.231Z,4.80
2022-08-25T10:15:38.690Z,6.57
2022-08-25T10:20:44.384Z,4.35
2022-08-25T10:25:59.387Z,4.25
2022-08-25T10:31:12.954Z,3.90
2022-08-25T10:36:23.081Z,4.17
2022-08-25T10:41:36.465Z,4.45
2022-08-25T10:46:50.840Z,8.73
2022-08-25T10:52:03.345Z,7.90
2022-08-25T10:57:08.265Z,6.60
2022-08-25T11:02:47.218Z,6.43
2022-08-25T11:07:55.789Z,5.93
2022-08-25T11:13:06.892Z,5.70
2022-08-25T11:18:15.185Z,7.68
2022-08-25T11:23:33.874Z,4.78
2022-08-25T11:28:51.634Z,4.05
2022-08-25T11:33:55.413Z,4.82
2022-08-25T11:39:24.355Z,4.95
2022-08-25T11:44:53.847Z,4.95
2022-08-25T11:50:07.159Z,6.78
2022-08-25T11:55:45.621Z,6.35
2022-08-25T12:00:47.553Z,7.30
2022-08-25T12:05:52.844Z,6.03
2022-08-25T12:10:56.974Z,6.28
2022-08-25T12:16:01.281Z,5.65
2022-08-25T12:21:06.917Z,4.50
2022-08-25T12:26:17.950Z,4.13
2022-08-25T12:31:47.797Z,6.72
2022-08-25T12:36:59.002Z,4.72
2022-08-25T12:42:07.438Z,5.22
2022-08-25T12:47:23.707Z,6.03
2022-08-25T12:52:27.965Z,6.57
2022-08-25T12:57:46.041Z,7.07
2022-08-25T13:03:22.705Z,6.90
2022-08-25T13:08:36.972Z,5.93
2022-08-25T13:13:44.889Z,5.80
2022-08-25T13:18:51.323Z,4.22
2022-08-25T13:24:04.669Z,5.22
2022-08-25T13:29:17.832Z,4.80
2022-08-25T13:34:22.991Z,4.80
2022-08-25T13:39:58.643Z,6.35
2022-08-25T13:44:59.913Z,5.03
2022-08-25T13:50:20.935Z,6.07
2022-08-25T13:55:29.703Z,4.20
2022-08-25T14:01:22.878Z,4.18
2022-08-25T14:06:38.768Z,4.78
2022-08-25T14:11:46.458Z,3.67
2022-08-25T14:16:54.201Z,4.97
2022-08-25T14:22:02.166Z,7.20
2022-08-25T14:27:05.115Z,6.63
2022-08-25T14:32:07.192Z,7.53
2022-08-25T14:37:20.267Z,7.97
2022-08-25T14:42:27.371Z,5.75
2022-08-25T14:47:31.694Z,5.18
2022-08-25T14:52:33.552Z,4.53
2022-08-25T14:57:40.530Z,5.00
2022-08-25T15:02:50.341Z,3.88
2022-08-25T15:08:22.177Z,6.03
2022-08-25T15:13:37.545Z,4.35
2022-08-25T15:18:41.124Z,6.72
2022-08-25T15:23:45.087Z,6.45
2022-08-25T15:28:50.268Z,6.28
2022-08-25T15:33:52.617Z,5.95
2022-08-25T15:38:54.696Z,5.50
2022-08-25T15:43:59.697Z,3.38
2022-08-25T15:49:02.032Z,3.22
2022-08-25T15:54:04.448Z,4.18
2022-08-25T15:59:08.636Z,4.38
2022-08-25T16:04:11.323Z,5.32
2022-08-25T16:09:13.127Z,3.92
2022-08-25T16:14:15.079Z,5.47
2022-08-25T16:19:17.579Z,4.03
2022-08-25T16:24:20.246Z,4.35
2022-08-25T16:29:22.913Z,3.83
2022-08-25T16:34:28.699Z,6.82
2022-08-25T16:39:33.170Z,4.63
2022-08-25T16:44:35.498Z,6.93
2022-08-25T16:49:38.089Z,7.10
2022-08-25T16:54:59.065Z,4.95
2022-08-25T17:00:01.501Z,4.18
2022-08-25T17:05:03.929Z,5.25
2022-08-25T17:10:07.532Z,9.38
2022-08-25T17:15:21.410Z,8.40
2022-08-25T17:20:23.934Z,4.70
2022-08-25T17:25:30.158Z,6.05
2022-08-25T17:30:34.159Z,6.53
2022-08-25T17:35:41.168Z,4.60
2022-08-25T17:40:43.815Z,4.10
2022-08-25T17:45:46.056Z,4.95
2022-08-25T17:50:50.846Z,5.70
2022-08-25T17:56:01.480Z,6.28
2022-08-25T18:01:05.246Z,4.70
2022-08-25T18:06:07.327Z,8.38
2022-08-25T18:11:09.922Z,6.40
2022-08-25T18:16:14.041Z,7.10
2022-08-25T18:21:17.951Z,7.88
2022-08-25T18:26:25.452Z,4.07
2022-08-25T18:31:34.212Z,6.22
2022-08-25T18:36:53.494Z,4.28
2022-08-25T18:41:55.679Z,6.03
2022-08-25T18:46:58.133Z,4.88
2022-08-25T18:51:59.803Z,6.55
2022-08-25T18:57:02.619Z,18.92
2022-08-25T19:02:05.204Z,6.55
2022-08-25T19:07:08.992Z,9.88
2022-08-25T19:12:11.586Z,11.35
2022-08-25T19:17:24.762Z,14.50
2022-08-25T19:22:41.255Z,11.20
2022-08-25T19:27:45.025Z,8.80
2022-08-25T19:32:47.912Z,6.13
2022-08-25T19:37:51.800Z,7.13
2022-08-25T19:42:53.968Z,20.60
2022-08-25T19:47:56.522Z,8.95
2022-08-25T19:52:59.793Z,8.68
2022-08-25T19:58:04.115Z,12.52
2022-08-25T20:03:07.399Z,12.07
2022-08-25T20:08:09.303Z,8.60
2022-08-25T20:13:11.425Z,7.95
2022-08-25T20:18:14.038Z,9.40
2022-08-25T20:23:34.509Z,7.03
2022-08-25T20:28:36.458Z,8.25
2022-08-25T20:33:38.393Z,11.65
2022-08-25T20:38:44.805Z,8.15
2022-08-25T20:43:46.749Z,7.63
2022-08-25T20:48:48.561Z,9.02
2022-08-25T20:53:50.710Z,7.55
2022-08-25T20:58:52.553Z,7.68
2022-08-25T21:03:54.288Z,6.03
2022-08-25T21:08:55.949Z,10.50
2022-08-25T21:13:59.390Z,11.23
2022-08-25T21:19:01.577Z,11.63
2022-08-25T21:24:05.206Z,9.95
2022-08-25T21:29:10.484Z,8.23
2022-08-25T21:34:20.375Z,6.82
2022-08-25T21:39:22.618Z,12.23
2022-08-25T21:44:24.425Z,8.48
2022-08-25T21:49:27.502Z,10.68
2022-08-25T21:54:30.442Z,13.55
2022-08-25T21:59:35.208Z,21.13
2022-08-25T22:04:38.936Z,19.50
2022-08-25T22:09:41.401Z,13.35
2022-08-25T22:14:43.196Z,11.48
2022-08-25T22:19:45.709Z,10.05
2022-08-25T22:24:47.624Z,10.05
2022-08-25T22:29:49.455Z,11.82
2022-08-25T22:34:51.385Z,13.63
2022-08-25T22:39:53.742Z,13.18
2022-08-25T22:44:55.994Z,14.55
2022-08-25T22:49:59.357Z,15.30
2022-08-25T22:55:03.496Z,14.45
2022-08-25T23:00:09.299Z,10.63
2022-08-25T23:05:13.268Z,12.45
2022-08-25T23:10:15.547Z,13.23
2022-08-25T23:15:17.709Z,9.65
2022-08-25T23:20:45.072Z,9.05
2022-08-25T23:25:48.365Z,13.15
2022-08-25T23:30:56.968Z,11.48
2022-08-25T23:36:04.292Z,12.38
2022-08-25T23:41:08.407Z,12.80
2022-08-25T23:46:10.558Z,14.15
2022-08-25T23:51:13.427Z,12.77
2022-08-25T23:56:15.682Z,12.90
